Time;durP1;ratioP1;P1;durP2;ratioP2;P2;SDS_P1;SDS_P2;PMS_P1;PMS_P2;Temp;Humidity;BMP_temperature;BMP_pressure;BME280_temperature;BME280_humidity;BME280_pressure;Samples;Min_cycle;Max_cycle;Signal;HPM_P1;HPM_P2
2023/05/22 00:00:30;;;;;;;14.18;12.77;;;17.20;82.30;;;;;;5113732;28;20225;-87
2023/05/22 00:02:57;;;;;;;15.15;13.68;;;17.20;82.40;;;;;;5113617;28;20165;-88
2023/05/22 00:05:23;;;;;;;16.75;12.68;;;17.20;82.30;;;;;;5114287;28;20166;-88
2023/05/22 00:07:48;;;;;;;14.82;13.27;;;17.10;82.40;;;;;;5113683;28;20587;-88
2023/05/22 00:10:14;;;;;;;13.80;12.48;;;17.00;82.50;;;;;;5114746;28;20578;-88
2023/05/22 00:12:39;;;;;;;16.55;13.05;;;17.00;82.70;;;;;;5113457;28;20197;-88
2023/05/22 00:15:06;;;;;;;15.65;12.07;;;17.00;82.80;;;;;;5113387;28;20182;-88
2023/05/22 00:17:32;;;;;;;21.08;13.05;;;16.90;82.90;;;;;;5114766;27;20170;-88
2023/05/22 00:20:07;;;;;;;18.67;13.80;;;16.90;83.00;;;;;;5113281;28;20194;-89
2023/05/22 00:22:36;;;;;;;18.52;14.07;;;16.80;83.00;;;;;;5114527;28;20207;-88
2023/05/22 00:25:06;;;;;;;15.77;13.07;;;16.80;83.10;;;;;;5113156;28;20677;-88
2023/05/22 00:27:32;;;;;;;16.92;14.30;;;16.70;83.10;;;;;;5113275;28;20280;-89
2023/05/22 00:29:58;;;;;;;22.33;20.30;;;16.70;83.30;;;;;;5113175;28;20178;-89
2023/05/22 00:32:26;;;;;;;23.63;21.33;;;16.70;83.30;;;;;;5113490;28;20218;-89
2023/05/22 00:34:51;;;;;;;22.35;20.30;;;16.60;83.40;;;;;;5113064;28;20656;-89
2023/05/22 00:37:20;;;;;;;24.90;21.63;;;16.60;83.50;;;;;;5113382;28;20187;-87
2023/05/22 00:39:45;;;;;;;22.10;20.00;;;16.60;83.50;;;;;;5115529;28;20201;-87
2023/05/22 00:42:11;;;;;;;22.75;20.85;;;16.60;83.50;;;;;;5114692;28;20216;-87
2023/05/22 00:44:37;;;;;;;23.23;21.23;;;16.60;83.40;;;;;;5114452;28;20174;-87
2023/05/22 00:47:03;;;;;;;21.52;19.83;;;16.50;83.50;;;;;;5114344;28;20527;-88
2023/05/22 00:49:28;;;;;;;21.98;20.17;;;16.50;83.60;;;;;;5114304;28;20173;-87
2023/05/22 00:51:54;;;;;;;22.45;20.25;;;16.40;83.60;;;;;;5114078;28;20189;-87
2023/05/22 00:54:20;;;;;;;22.65;20.33;;;16.30;83.80;;;;;;5114171;28;20185;-87
2023/05/22 00:56:46;;;;;;;22.15;20.30;;;16.30;83.90;;;;;;5114353;28;20306;-87
2023/05/22 00:59:12;;;;;;;21.60;19.48;;;16.30;84.00;;;;;;5114285;28;20210;-87
2023/05/22 01:01:40;;;;;;;15.73;12.90;;;16.20;84.10;;;;;;5116128;28;20274;-87
2023/05/22 01:04:09;;;;;;;15.00;13.23;;;16.20;84.10;;;;;;5115081;28;20663;-87
2023/05/22 01:06:35;;;;;;;14.85;13.35;;;16.20;84.10;;;;;;5114247;28;20227;-87
2023/05/22 01:09:00;;;;;;;14.27;12.77;;;16.20;84.20;;;;;;5115621;28;20178;-88
2023/05/22 01:11:50;;;;;;;18.35;13.63;;;16.10;84.40;;;;;;5113932;28;20194;-87
2023/05/22 01:14:39;;;;;;;13.90;12.65;;;16.10;84.40;;;;;;5114254;28;20162;-87
2023/05/22 01:17:21;;;;;;;19.63;14.50;;;16.10;84.20;;;;;;5114507;28;20163;-87
2023/05/22 01:20:16;;;;;;;15.10;12.93;;;16.10;84.20;;;;;;5115249;28;20565;-87
2023/05/22 01:23:03;;;;;;;14.23;12.50;;;16.10;84.20;;;;;;5114384;28;20190;-87
2023/05/22 01:26:01;;;;;;;14.27;12.30;;;16.10;84.20;;;;;;5113814;28;20276;-87
2023/05/22 01:28:45;;;;;;;15.43;12.27;;;16.10;84.00;;;;;;5114327;28;20154;-87
2023/05/22 01:31:15;;;;;;;18.60;13.05;;;16.10;83.90;;;;;;5114783;28;20204;-87
2023/05/22 01:33:47;;;;;;;13.65;11.95;;;16.10;83.80;;;;;;5115197;28;20651;-87
2023/05/22 01:36:18;;;;;;;16.88;11.98;;;16.10;83.60;;;;;;5113861;28;20158;-87
2023/05/22 01:38:45;;;;;;;13.25;11.88;;;16.20;83.50;;;;;;5114612;28;20231;-87
2023/05/22 01:41:12;;;;;;;13.68;12.27;;;16.20;83.50;;;;;;5114675;28;20205;-87
2023/05/22 01:43:37;;;;;;;17.75;12.30;;;16.20;83.30;;;;;;5113495;28;20166;-87
2023/05/22 01:46:04;;;;;;;13.90;12.50;;;16.20;83.30;;;;;;5114050;28;20545;-87
2023/05/22 01:48:30;;;;;;;13.73;12.45;;;16.10;83.30;;;;;;5114702;28;20174;-87
2023/05/22 01:51:01;;;;;;;17.58;12.20;;;16.10;83.30;;;;;;5114021;28;20208;-87
2023/05/22 01:53:32;;;;;;;17.52;13.23;;;16.10;83.30;;;;;;5114006;28;20601;-87
2023/05/22 01:56:10;;;;;;;22.48;20.27;;;16.00;83.40;;;;;;5115235;28;20154;-87
2023/05/22 01:58:38;;;;;;;22.33;20.13;;;16.00;83.40;;;;;;5113798;28;20294;-87
2023/05/22 02:01:05;;;;;;;22.30;20.17;;;16.00;83.40;;;;;;5113289;28;20213;-87
2023/05/22 02:03:33;;;;;;;26.65;19.75;;;16.00;83.40;;;;;;5114784;28;20199;-87
2023/05/22 02:06:03;;;;;;;21.65;19.70;;;16.00;83.30;;;;;;5113243;28;20166;-87
2023/05/22 02:08:30;;;;;;;22.13;20.40;;;15.90;83.40;;;;;;5116418;28;20164;-87
2023/05/22 02:10:56;;;;;;;21.80;19.70;;;15.90;83.40;;;;;;5116917;28;20221;-87
2023/05/22 02:13:22;;;;;;;19.40;17.77;;;15.90;83.40;;;;;;5117173;28;20258;-87
2023/05/22 02:15:48;;;;;;;20.25;18.52;;;15.90;83.30;;;;;;5118418;28;20174;-87
2023/05/22 02:18:14;;;;;;;22.25;19.95;;;15.90;83.30;;;;;;5116767;28;20166;-87
2023/05/22 02:20:40;;;;;;;21.23;19.08;;;15.90;83.30;;;;;;5117760;28;20243;-87
2023/05/22 02:23:06;;;;;;;21.48;19.67;;;15.90;83.30;;;;;;5116527;28;20178;-87
2023/05/22 02:25:31;;;;;;;22.02;19.92;;;15.80;83.30;;;;;;5117879;28;20200;-87
2023/05/22 02:27:57;;;;;;;13.57;12.18;;;15.90;83.20;;;;;;5118182;28;20187;-87
2023/05/22 02:30:23;;;;;;;13.90;12.50;;;15.90;83.30;;;;;;5118085;27;20178;-87
2023/05/22 02:32:49;;;;;;;17.13;13.30;;;15.80;83.30;;;;;;5116528;28;20230;-87
2023/05/22 02:35:14;;;;;;;13.25;12.05;;;15.80;83.40;;;;;;5117806;28;20169;-87
2023/05/22 02:37:41;;;;;;;13.68;12.20;;;15.80;83.30;;;;;;5116267;28;20238;-87
2023/05/22 02:40:07;;;;;;;13.35;12.07;;;15.80;83.20;;;;;;5117147;28;20190;-87
2023/05/22 02:42:33;;;;;;;14.73;12.13;;;15.80;83.30;;;;;;5118040;28;20186;-87
2023/05/22 02:44:59;;;;;;;13.98;12.65;;;15.80;83.30;;;;;;5116433;28;20166;-87
2023/05/22 02:47:24;;;;;;;16.23;13.20;;;15.70;83.30;;;;;;5116239;28;20181;-87
2023/05/22 02:49:50;;;;;;;15.90;12.30;;;15.70;83.30;;;;;;5116249;28;20685;-87
2023/05/22 02:52:16;;;;;;;13.77;12.38;;;15.70;83.40;;;;;;5117714;28;20258;-87
2023/05/22 02:54:41;;;;;;;15.98;12.27;;;15.70;83.50;;;;;;5116405;28;20529;-87
2023/05/22 02:57:07;;;;;;;19.35;12.30;;;15.70;83.50;;;;;;5116246;28;20177;-87
2023/05/22 02:59:34;;;;;;;15.38;11.80;;;15.60;83.50;;;;;;5117746;28;20257;-86
2023/05/22 03:02:00;;;;;;;14.55;11.75;;;15.60;83.50;;;;;;5117254;28;20194;-87
2023/05/22 03:04:26;;;;;;;13.05;11.70;;;15.60;83.50;;;;;;5116245;28;20170;-87
2023/05/22 03:06:51;;;;;;;12.65;11.55;;;15.50;83.60;;;;;;5116073;28;20170;-87
2023/05/22 03:09:19;;;;;;;16.08;12.20;;;15.60;83.60;;;;;;5115929;28;20174;-87
2023/05/22 03:11:44;;;;;;;18.55;12.15;;;15.50;83.60;;;;;;5117461;27;20663;-87
2023/05/22 03:14:10;;;;;;;12.85;11.55;;;15.50;83.60;;;;;;5117086;28;20211;-87
2023/05/22 03:16:35;;;;;;;16.60;11.60;;;15.50;83.50;;;;;;5116808;28;20180;-87
2023/05/22 03:19:12;;;;;;;15.32;13.13;;;15.50;83.40;;;;;;5115817;28;20177;-87
2023/05/22 03:21:38;;;;;;;21.13;19.20;;;15.60;83.40;;;;;;5116829;27;20265;-87
2023/05/22 03:24:04;;;;;;;19.83;18.05;;;15.60;83.20;;;;;;5117602;28;20163;-87
2023/05/22 03:26:29;;;;;;;19.23;17.42;;;15.60;83.20;;;;;;5115512;28;20280;-87
2023/05/22 03:28:55;;;;;;;19.27;17.60;;;15.50;83.10;;;;;;5115541;28;20269;-87
2023/05/22 03:31:23;;;;;;;18.08;16.48;;;15.50;83.10;;;;;;5115153;28;20246;-87
2023/05/22 03:33:49;;;;;;;19.08;16.92;;;15.50;83.00;;;;;;5115171;28;20269;-87
2023/05/22 03:36:15;;;;;;;18.65;17.05;;;15.60;82.70;;;;;;5117160;28;20198;-87
2023/05/22 03:38:40;;;;;;;17.50;15.80;;;15.60;82.50;;;;;;5116435;28;20170;-87
2023/05/22 03:41:06;;;;;;;24.10;17.15;;;15.60;82.40;;;;;;5115038;28;20304;-87
2023/05/22 03:43:32;;;;;;;18.23;16.38;;;15.60;82.40;;;;;;5116246;28;20186;-87
2023/05/22 03:45:58;;;;;;;18.75;16.88;;;15.60;82.20;;;;;;5114961;28;20204;-87
2023/05/22 03:48:23;;;;;;;18.35;16.48;;;15.70;82.10;;;;;;5114799;28;20174;-87
2023/05/22 03:50:49;;;;;;;18.83;17.05;;;15.70;82.00;;;;;;5116200;28;20174;-86
2023/05/22 03:53:15;;;;;;;14.85;11.20;;;15.70;81.90;;;;;;5116222;28;20204;-87
2023/05/22 03:55:41;;;;;;;12.82;11.57;;;15.70;81.90;;;;;;5114776;28;20178;-87
2023/05/22 03:58:06;;;;;;;13.38;11.43;;;15.70;81.70;;;;;;5116052;28;20178;-87
2023/05/22 04:00:32;;;;;;;13.63;11.18;;;15.70;81.60;;;;;;5114817;28;20205;-87
2023/05/22 04:02:57;;;;;;;14.45;11.15;;;15.80;81.50;;;;;;5115252;28;20170;-87
2023/05/22 04:05:23;;;;;;;13.43;10.65;;;15.80;81.40;;;;;;5114471;28;20181;-87
2023/05/22 04:07:49;;;;;;;11.70;10.65;;;15.80;81.20;;;;;;5115521;28;20306;-87
2023/05/22 04:10:14;;;;;;;12.10;10.95;;;15.80;81.20;;;;;;5114356;28;20174;-87
2023/05/22 04:12:40;;;;;;;12.60;11.15;;;15.80;81.10;;;;;;5115643;28;20194;-86
2023/05/22 04:15:06;;;;;;;11.90;10.30;;;15.80;81.00;;;;;;5114339;28;20180;-87
2023/05/22 04:17:32;;;;;;;12.00;10.77;;;15.80;81.00;;;;;;5114216;28;20174;-87
2023/05/22 04:19:59;;;;;;;11.98;10.88;;;15.90;80.80;;;;;;5115602;28;20249;-86
2023/05/22 04:22:26;;;;;;;12.02;10.80;;;15.90;80.70;;;;;;5114279;28;20273;-87
2023/05/22 04:24:52;;;;;;;11.45;10.30;;;16.00;80.60;;;;;;5115321;28;20177;-87
2023/05/22 04:27:21;;;;;;;14.35;11.68;;;16.00;80.60;;;;;;5114510;28;20186;-87
2023/05/22 04:29:47;;;;;;;13.82;10.70;;;16.10;80.40;;;;;;5113950;28;20174;-87
2023/05/22 04:32:17;;;;;;;11.77;10.70;;;16.20;80.20;;;;;;5114548;28;20240;-87
2023/05/22 04:34:44;;;;;;;13.55;11.23;;;16.30;79.90;;;;;;5115676;28;20274;-87
2023/05/22 04:37:10;;;;;;;12.43;10.93;;;16.30;79.80;;;;;;5115399;28;20162;-87
2023/05/22 04:39:36;;;;;;;12.00;10.43;;;16.40;79.40;;;;;;5115195;28;20172;-87
2023/05/22 04:42:04;;;;;;;15.93;11.35;;;16.50;79.00;;;;;;5113824;28;20708;-87
2023/05/22 04:44:33;;;;;;;14.45;11.00;;;16.50;79.10;;;;;;5114150;28;20173;-87
2023/05/22 04:47:01;;;;;;;20.50;18.90;;;16.60;78.90;;;;;;5114868;27;20245;-87
2023/05/22 04:49:27;;;;;;;19.80;18.25;;;16.50;78.50;;;;;;5113721;28;20599;-87
2023/05/22 04:51:54;;;;;;;20.08;18.10;;;16.60;78.50;;;;;;5115170;28;20181;-87
2023/05/22 04:54:20;;;;;;;18.50;16.90;;;16.60;78.50;;;;;;5115189;27;20180;-87
2023/05/22 04:56:45;;;;;;;18.92;17.40;;;16.60;78.60;;;;;;5113615;28;20265;-87
2023/05/22 04:59:15;;;;;;;20.08;17.85;;;16.60;78.20;;;;;;5114232;28;20178;-87
2023/05/22 05:01:44;;;;;;;19.08;17.50;;;16.60;78.10;;;;;;5113112;28;20210;-87
2023/05/22 05:04:10;;;;;;;18.20;16.25;;;16.50;78.40;;;;;;5114626;28;20249;-87
2023/05/22 05:06:36;;;;;;;19.20;17.33;;;16.50;78.30;;;;;;5115106;28;20162;-87
2023/05/22 05:09:02;;;;;;;19.60;17.65;;;16.60;78.30;;;;;;5113932;28;20176;-87
2023/05/22 05:11:28;;;;;;;18.45;16.55;;;16.60;78.00;;;;;;5113231;28;20190;-89
2023/05/22 05:13:54;;;;;;;21.55;18.35;;;16.60;78.20;;;;;;5113219;28;20170;-87
2023/05/22 05:16:20;;;;;;;17.90;16.52;;;16.70;78.30;;;;;;5115013;28;20704;-87
2023/05/22 05:18:46;;;;;;;13.18;10.73;;;16.70;77.70;;;;;;5114287;28;20549;-87
2023/05/22 05:21:11;;;;;;;15.93;10.55;;;16.80;77.30;;;;;;5114016;28;20201;-87
2023/05/22 05:23:37;;;;;;;16.92;10.23;;;16.90;77.10;;;;;;5112590;28;20166;-86
2023/05/22 05:26:02;;;;;;;12.10;10.98;;;17.00;77.40;;;;;;5112479;28;20235;-87
2023/05/22 05:28:28;;;;;;;13.82;11.13;;;17.10;77.50;;;;;;5113835;28;20632;-87
2023/05/22 05:30:54;;;;;;;13.40;10.18;;;17.10;77.00;;;;;;5113673;28;20720;-88
2023/05/22 05:33:19;;;;;;;11.65;10.50;;;17.20;76.60;;;;;;5113794;28;20177;-87
2023/05/22 05:35:45;;;;;;;11.52;10.20;;;17.20;76.30;;;;;;5112710;28;20174;-87
2023/05/22 05:38:10;;;;;;;11.82;10.57;;;17.30;76.10;;;;;;5112485;28;20219;-87
2023/05/22 05:40:36;;;;;;;12.65;10.85;;;17.40;76.10;;;;;;5113593;28;20206;-86
2023/05/22 05:43:02;;;;;;;11.40;10.32;;;17.40;76.20;;;;;;5114431;28;20260;-87
2023/05/22 05:45:28;;;;;;;11.55;10.43;;;17.40;76.30;;;;;;5116511;28;20174;-87
2023/05/22 05:47:53;;;;;;;12.35;10.98;;;17.40;76.10;;;;;;5116578;28;20170;-87
2023/05/22 05:50:19;;;;;;;15.10;10.30;;;17.50;76.20;;;;;;5117698;28;20182;-87
2023/05/22 05:52:45;;;;;;;12.07;10.93;;;17.50;76.30;;;;;;5117415;28;20194;-87
2023/05/22 05:55:11;;;;;;;11.05;9.95;;;17.50;76.30;;;;;;5116471;28;20182;-87
2023/05/22 05:57:36;;;;;;;12.05;10.88;;;17.40;76.30;;;;;;5117617;28;20177;-87
2023/05/22 06:00:04;;;;;;;11.07;10.15;;;17.40;76.60;;;;;;5116081;28;20174;-87
2023/05/22 06:02:30;;;;;;;11.15;10.13;;;17.50;77.00;;;;;;5116087;28;20221;-87
2023/05/22 06:04:55;;;;;;;12.32;10.98;;;17.50;77.00;;;;;;5117375;28;20189;-88
2023/05/22 06:07:20;;;;;;;11.63;10.50;;;17.50;76.90;;;;;;5115977;28;20522;-87
2023/05/22 06:09:46;;;;;;;15.75;11.13;;;17.50;76.80;;;;;;5116081;28;20216;-87
2023/05/22 06:12:12;;;;;;;18.73;17.23;;;17.50;76.80;;;;;;5115836;28;20197;-87
2023/05/22 06:14:39;;;;;;;19.00;17.10;;;17.60;77.30;;;;;;5117202;28;20162;-87
2023/05/22 06:17:07;;;;;;;19.08;17.17;;;17.60;77.00;;;;;;5115794;28;20170;-87
2023/05/22 06:19:33;;;;;;;19.23;17.83;;;17.60;77.10;;;;;;5116970;28;20162;-87
2023/05/22 06:21:59;;;;;;;21.60;18.08;;;17.60;76.60;;;;;;5117174;28;20565;-87
2023/05/22 06:24:24;;;;;;;19.10;17.52;;;17.70;76.80;;;;;;5115867;28;20227;-87
2023/05/22 06:26:50;;;;;;;17.63;16.00;;;17.70;77.10;;;;;;5116989;28;20192;-87
2023/05/22 06:29:16;;;;;;;18.35;17.05;;;17.70;77.00;;;;;;5115791;28;20170;-87
2023/05/22 06:31:41;;;;;;;18.88;17.38;;;17.80;77.30;;;;;;5117002;28;20198;-87
2023/05/22 06:34:07;;;;;;;19.50;17.73;;;17.80;77.40;;;;;;5115541;28;20583;-87
2023/05/22 06:36:33;;;;;;;11.73;10.38;;;17.90;76.80;;;;;;5116821;28;20197;-87
2023/05/22 06:38:59;;;;;;;14.13;10.60;;;17.90;77.00;;;;;;5115641;28;20234;-87
2023/05/22 06:41:25;;;;;;;12.50;11.32;;;18.00;77.00;;;;;;5115351;28;20209;-87
2023/05/22 06:43:50;;;;;;;11.75;10.65;;;18.00;76.40;;;;;;5115340;28;20269;-87
2023/05/22 06:46:16;;;;;;;11.18;10.27;;;18.10;76.20;;;;;;5116518;28;20166;-87
2023/05/22 06:48:41;;;;;;;13.25;11.00;;;18.20;76.60;;;;;;5115163;28;20636;-87
2023/05/22 06:51:10;;;;;;;17.40;10.75;;;18.20;76.40;;;;;;5115152;28;20229;-86
2023/05/22 06:53:35;;;;;;;12.55;10.48;;;18.20;76.40;;;;;;5116285;28;20166;-86
2023/05/22 06:56:01;;;;;;;12.15;10.80;;;18.30;75.90;;;;;;5115487;28;20185;-86
2023/05/22 06:58:26;;;;;;;11.20;10.07;;;18.40;76.10;;;;;;5116654;28;20636;-88
2023/05/22 07:00:54;;;;;;;15.85;10.88;;;18.50;76.30;;;;;;5116125;28;20205;-87
2023/05/22 07:03:20;;;;;;;11.93;9.68;;;18.60;75.80;;;;;;5116400;28;20166;-87
2023/05/22 07:05:45;;;;;;;14.20;10.82;;;18.70;74.60;;;;;;5114872;28;20644;-87
2023/05/22 07:08:11;;;;;;;15.98;11.23;;;18.80;74.10;;;;;;5114744;28;20231;-87
2023/05/22 07:10:37;;;;;;;11.77;10.57;;;18.90;73.90;;;;;;5114617;28;20174;-87
2023/05/22 07:13:02;;;;;;;12.20;11.07;;;19.10;74.20;;;;;;5114763;28;20174;-87
2023/05/22 07:15:28;;;;;;;12.52;11.40;;;19.20;72.80;;;;;;5114771;28;20170;-87
2023/05/22 07:17:53;;;;;;;11.32;10.43;;;19.30;72.50;;;;;;5115746;28;20170;-87
2023/05/22 07:20:19;;;;;;;12.50;11.50;;;19.40;72.90;;;;;;5114592;28;20201;-87
2023/05/22 07:22:45;;;;;;;13.68;11.10;;;19.60;71.60;;;;;;5115612;28;20186;-87
2023/05/22 07:25:10;;;;;;;14.82;13.52;;;19.70;72.00;;;;;;5115749;28;20704;-88
2023/05/22 07:27:36;;;;;;;13.07;11.60;;;19.70;70.20;;;;;;5114558;28;20158;-88
2023/05/22 07:30:02;;;;;;;15.65;11.80;;;19.90;70.80;;;;;;5114424;28;20315;-87
2023/05/22 07:32:27;;;;;;;19.65;18.10;;;20.10;69.60;;;;;;5114341;28;20235;-88
2023/05/22 07:34:53;;;;;;;20.73;19.10;;;20.30;69.30;;;;;;5115615;28;20162;-87
2023/05/22 07:37:19;;;;;;;21.05;19.15;;;20.50;68.40;;;;;;5114295;28;20177;-87
2023/05/22 07:39:45;;;;;;;21.23;19.52;;;20.60;67.50;;;;;;5115634;28;20580;-87
2023/05/22 07:42:13;;;;;;;13.65;12.75;;;20.70;67.70;;;;;;5115409;28;20202;-88
2023/05/22 07:44:39;;;;;;;15.60;13.85;;;20.80;67.30;;;;;;5115484;28;20169;-87
2023/05/22 07:47:05;;;;;;;24.50;22.48;;;21.00;65.60;;;;;;5114145;28;20178;-87
2023/05/22 07:49:31;;;;;;;25.45;23.85;;;21.00;63.80;;;;;;5115264;28;20715;-87
2023/05/22 07:51:57;;;;;;;17.75;16.40;;;21.10;63.10;;;;;;5115273;28;20234;-87
2023/05/22 07:54:22;;;;;;;15.45;14.05;;;21.10;63.20;;;;;;5115474;28;20174;-87
2023/05/22 07:56:48;;;;;;;15.43;13.93;;;21.20;63.20;;;;;;5115375;28;20262;-86
2023/05/22 07:59:14;;;;;;;15.07;13.80;;;21.30;63.20;;;;;;5115000;28;20208;-88
2023/05/22 08:01:43;;;;;;;14.55;13.43;;;21.50;63.00;;;;;;5114895;28;20216;-87
2023/05/22 08:04:08;;;;;;;14.52;13.23;;;21.60;61.10;;;;;;5115081;28;20173;-87
2023/05/22 08:06:34;;;;;;;15.27;14.00;;;21.70;61.50;;;;;;5113001;28;20257;-87
2023/05/22 08:09:01;;;;;;;15.73;14.13;;;21.90;61.40;;;;;;5115350;28;20249;-87
2023/05/22 08:11:27;;;;;;;17.38;15.90;;;22.10;61.00;;;;;;5113736;28;20205;-88
2023/05/22 08:13:52;;;;;;;16.63;15.43;;;22.20;57.90;;;;;;5115025;28;20205;-87
2023/05/22 08:16:18;;;;;;;17.00;15.65;;;22.40;59.00;;;;;;5113922;28;20201;-88
2023/05/22 08:18:43;;;;;;;17.17;15.50;;;22.50;57.40;;;;;;5113545;28;20205;-88
2023/05/22 08:21:09;;;;;;;18.00;16.42;;;22.60;55.70;;;;;;5114864;28;20254;-87
2023/05/22 08:23:35;;;;;;;17.70;15.82;;;22.80;58.00;;;;;;5114087;28;20166;-88
2023/05/22 08:26:01;;;;;;;16.00;14.85;;;22.90;58.40;;;;;;5115307;27;20193;-88
2023/05/22 08:28:26;;;;;;;17.25;15.95;;;23.20;57.20;;;;;;5115144;28;20235;-87
2023/05/22 08:30:53;;;;;;;16.85;15.45;;;23.30;53.90;;;;;;5113365;28;20269;-87
2023/05/22 08:33:19;;;;;;;15.50;13.95;;;23.40;53.70;;;;;;5114603;28;20170;-87
2023/05/22 08:35:44;;;;;;;15.20;13.65;;;23.40;53.60;;;;;;5113424;28;20226;-87
2023/05/22 08:38:10;;;;;;;17.23;13.70;;;23.50;54.50;;;;;;5113833;28;20188;-87
2023/05/22 08:40:37;;;;;;;15.15;14.02;;;23.50;56.40;;;;;;5114506;28;20236;-87
2023/05/22 08:43:04;;;;;;;16.92;13.90;;;23.50;53.30;;;;;;5114728;28;20166;-87
2023/05/22 08:45:32;;;;;;;15.98;14.57;;;23.50;53.40;;;;;;5113330;28;20189;-87
2023/05/22 08:47:58;;;;;;;20.33;14.65;;;23.40;52.00;;;;;;5114392;28;20172;-88
2023/05/22 08:50:25;;;;;;;16.42;14.82;;;23.50;53.80;;;;;;5114677;28;20661;-87
2023/05/22 08:52:55;;;;;;;16.38;15.20;;;23.70;53.20;;;;;;5113642;28;20716;-87
2023/05/22 08:55:21;;;;;;;16.30;14.85;;;23.90;53.00;;;;;;5115449;28;20213;-86
2023/05/22 08:57:48;;;;;;;16.58;15.05;;;24.10;50.30;;;;;;5114176;28;20636;-86
2023/05/22 09:00:15;;;;;;;16.40;15.20;;;24.40;51.30;;;;;;5114737;28;20204;-86
2023/05/22 09:02:41;;;;;;;16.20;15.00;;;24.60;51.00;;;;;;5114347;27;20221;-88
2023/05/22 09:05:08;;;;;;;16.83;15.48;;;24.70;49.20;;;;;;5113187;28;20589;-87
2023/05/22 09:07:34;;;;;;;16.23;15.05;;;24.90;49.50;;;;;;5114813;28;20628;-88
2023/05/22 09:10:03;;;;;;;16.17;15.07;;;24.90;47.40;;;;;;5113879;28;20640;-87
2023/05/22 09:12:30;;;;;;;17.10;15.15;;;25.00;47.60;;;;;;5114262;28;20209;-88
2023/05/22 09:14:57;;;;;;;16.17;14.50;;;25.10;50.00;;;;;;5112624;28;20170;-88
2023/05/22 09:17:25;;;;;;;15.80;14.45;;;25.20;49.10;;;;;;5112597;28;20204;-88
2023/05/22 09:19:50;;;;;;;15.95;14.85;;;25.40;47.50;;;;;;5113065;28;20523;-88
2023/05/22 09:22:16;;;;;;;16.83;15.55;;;25.30;47.70;;;;;;5112488;28;20217;-88
2023/05/22 09:24:43;;;;;;;16.20;14.90;;;25.40;48.60;;;;;;5113012;28;20169;-88
2023/05/22 09:27:10;;;;;;;15.90;14.80;;;25.50;48.10;;;;;;5112496;28;20190;-88
2023/05/22 09:29:50;;;;;;;17.05;15.30;;;25.60;47.70;;;;;;5113053;28;20549;-88
2023/05/22 09:32:16;;;;;;;16.05;14.75;;;25.70;46.80;;;;;;5113625;28;20185;-88
2023/05/22 09:34:43;;;;;;;16.23;14.90;;;25.70;48.70;;;;;;5112522;28;20163;-87
2023/05/22 09:37:10;;;;;;;15.95;14.85;;;25.70;46.70;;;;;;5113784;28;20193;-87
2023/05/22 09:39:46;;;;;;;16.58;15.13;;;25.70;46.70;;;;;;5113928;28;20539;-87
2023/05/22 09:42:14;;;;;;;16.75;15.30;;;25.80;47.00;;;;;;5114012;28;20204;-86
2023/05/22 09:44:41;;;;;;;16.58;15.05;;;25.90;47.80;;;;;;5113574;28;20166;-87
2023/05/22 09:47:08;;;;;;;16.75;15.45;;;26.00;47.40;;;;;;5112252;28;20184;-88
2023/05/22 09:49:42;;;;;;;16.42;15.02;;;26.00;45.70;;;;;;5112703;28;20170;-87
2023/05/22 09:52:08;;;;;;;16.42;15.32;;;25.70;47.10;;;;;;5112110;28;20776;-87
2023/05/22 09:54:37;;;;;;;15.90;14.70;;;25.50;45.90;;;;;;5112430;28;20191;-87
2023/05/22 09:57:05;;;;;;;17.05;15.88;;;25.50;46.60;;;;;;5113727;28;20178;-87
2023/05/22 09:59:33;;;;;;;17.65;15.77;;;25.50;48.00;;;;;;5113630;28;20170;-87
2023/05/22 10:02:00;;;;;;;17.00;15.30;;;25.50;46.30;;;;;;5113461;28;20201;-87
2023/05/22 10:04:31;;;;;;;17.38;16.23;;;25.50;46.30;;;;;;5112088;28;20170;-87
2023/05/22 10:07:01;;;;;;;17.67;16.27;;;25.50;45.80;;;;;;5112154;28;20158;-87
2023/05/22 10:09:32;;;;;;;17.85;16.10;;;25.30;46.60;;;;;;5112208;28;20166;-88
2023/05/22 10:12:04;;;;;;;23.10;16.42;;;25.30;47.10;;;;;;5113214;28;20198;-87
2023/05/22 10:14:31;;;;;;;18.13;16.42;;;25.30;46.80;;;;;;5113401;28;20181;-87
2023/05/22 10:17:00;;;;;;;17.25;15.82;;;25.30;45.20;;;;;;5112441;28;20256;-87
2023/05/22 10:19:29;;;;;;;22.92;20.83;;;25.20;45.30;;;;;;5113207;28;20166;-88
2023/05/22 10:21:56;;;;;;;23.60;21.50;;;25.20;47.40;;;;;;5114529;28;20197;-87
2023/05/22 10:24:23;;;;;;;23.65;21.77;;;25.20;47.50;;;;;;5112433;28;20170;-87
2023/05/22 10:26:50;;;;;;;21.90;19.77;;;25.40;46.90;;;;;;5112931;28;20174;-87
2023/05/22 10:29:41;;;;;;;17.42;15.98;;;25.40;46.00;;;;;;5115226;28;20605;-87
2023/05/22 10:32:17;;;;;;;17.63;16.10;;;25.50;46.90;;;;;;5115715;28;20204;-87
2023/05/22 10:35:10;;;;;;;16.90;15.60;;;25.50;47.40;;;;;;5116683;28;20181;-88
2023/05/22 10:38:00;;;;;;;17.08;15.70;;;25.50;47.70;;;;;;5116895;27;20181;-86
2023/05/22 10:40:33;;;;;;;17.95;16.40;;;25.50;46.20;;;;;;5118806;28;20315;-87
2023/05/22 10:43:00;;;;;;;18.33;17.10;;;25.60;47.50;;;;;;5115781;28;20539;-87
2023/05/22 10:45:30;;;;;;;17.60;16.30;;;25.60;47.50;;;;;;5116589;28;20166;-87
2023/05/22 10:48:07;;;;;;;17.80;16.42;;;25.60;45.60;;;;;;5115418;28;20246;-86
2023/05/22 10:50:34;;;;;;;18.20;16.67;;;25.70;48.40;;;;;;5116628;28;20177;-87
2023/05/22 10:53:20;;;;;;;18.58;17.00;;;25.70;45.70;;;;;;5116506;28;20170;-88
2023/05/22 10:55:49;;;;;;;18.33;16.52;;;25.70;46.10;;;;;;5115578;28;20173;-88
2023/05/22 10:58:16;;;;;;;17.92;16.63;;;25.80;46.20;;;;;;5116268;28;20173;-88
2023/05/22 11:00:42;;;;;;;17.98;16.25;;;25.70;46.10;;;;;;5116159;28;20221;-87
2023/05/22 11:03:08;;;;;;;18.10;16.55;;;25.70;45.90;;;;;;5116542;28;20173;-88
2023/05/22 11:05:35;;;;;;;18.60;16.95;;;25.70;45.90;;;;;;5116064;28;20238;-88
2023/05/22 11:08:10;;;;;;;17.70;16.40;;;25.70;48.50;;;;;;5116071;28;20166;-88
2023/05/22 11:10:57;;;;;;;18.73;16.75;;;25.80;46.20;;;;;;5115975;28;20169;-88
2023/05/22 11:13:26;;;;;;;18.83;17.23;;;25.70;45.50;;;;;;5115971;28;20174;-88
2023/05/22 11:15:54;;;;;;;17.67;16.00;;;25.80;46.30;;;;;;5115973;28;20162;-88
2023/05/22 11:18:20;;;;;;;18.95;16.95;;;25.90;45.70;;;;;;5114643;28;20256;-88
2023/05/22 11:20:46;;;;;;;17.88;16.45;;;26.00;46.40;;;;;;5114533;28;20742;-87
2023/05/22 11:23:12;;;;;;;18.63;16.90;;;26.20;46.60;;;;;;5115821;28;20661;-88
2023/05/22 11:25:40;;;;;;;21.33;16.90;;;26.40;46.30;;;;;;5115636;28;20239;-88
2023/05/22 11:28:06;;;;;;;18.52;16.88;;;26.50;45.50;;;;;;5115658;28;20575;-88
2023/05/22 11:30:33;;;;;;;17.52;16.13;;;26.60;46.60;;;;;;5114348;28;20170;-87
2023/05/22 11:33:00;;;;;;;18.33;16.63;;;26.70;45.10;;;;;;5115586;28;20590;-88
2023/05/22 11:35:26;;;;;;;18.40;16.98;;;26.80;45.10;;;;;;5114248;28;20219;-88
2023/05/22 11:37:54;;;;;;;18.00;16.67;;;26.70;45.90;;;;;;5115538;28;20223;-88
2023/05/22 11:40:24;;;;;;;19.02;17.13;;;26.70;46.30;;;;;;5113114;28;20206;-88
2023/05/22 11:42:51;;;;;;;18.63;17.10;;;26.80;44.30;;;;;;5114115;28;20194;-88
2023/05/22 11:45:16;;;;;;;18.83;17.35;;;27.20;46.40;;;;;;5115478;27;20256;-88
2023/05/22 11:47:43;;;;;;;18.33;16.58;;;27.40;44.60;;;;;;5115572;28;20248;-88
2023/05/22 11:50:10;;;;;;;18.13;16.60;;;27.50;44.60;;;;;;5114045;28;20174;-90
2023/05/22 11:52:36;;;;;;;18.73;17.10;;;27.50;43.60;;;;;;5113784;28;20189;-90
2023/05/22 11:55:09;;;;;;;18.10;16.73;;;27.50;43.90;;;;;;5115227;28;20169;-91
2023/05/22 11:57:36;;;;;;;19.05;17.00;;;27.20;43.20;;;;;;5113930;28;20554;-89
2023/05/22 12:00:05;;;;;;;19.20;16.92;;;27.20;44.30;;;;;;5114028;28;20265;-88
2023/05/22 12:02:30;;;;;;;17.60;15.98;;;27.20;43.70;;;;;;5114872;28;20648;-89
2023/05/22 12:04:57;;;;;;;18.05;16.85;;;27.30;44.70;;;;;;5114884;28;20181;-88
2023/05/22 12:07:24;;;;;;;20.20;18.30;;;27.30;43.30;;;;;;5113654;28;20174;-88
2023/05/22 12:09:50;;;;;;;19.77;17.77;;;27.50;44.10;;;;;;5113704;28;20170;-89
2023/05/22 12:12:16;;;;;;;18.75;17.08;;;27.70;41.70;;;;;;5114310;28;20765;-88
2023/05/22 12:14:45;;;;;;;19.02;17.63;;;27.80;42.30;;;;;;5113810;28;20205;-89
2023/05/22 12:17:12;;;;;;;19.83;17.88;;;27.80;42.70;;;;;;5113495;28;20193;-89
2023/05/22 12:19:41;;;;;;;19.05;17.52;;;27.80;42.50;;;;;;5115571;28;20181;-88
2023/05/22 12:22:10;;;;;;;25.65;23.42;;;27.70;41.70;;;;;;5114468;28;20198;-89
2023/05/22 12:24:40;;;;;;;25.60;23.45;;;27.50;41.20;;;;;;5113475;28;20169;-89
2023/05/22 12:27:09;;;;;;;24.88;22.98;;;27.50;42.00;;;;;;5114591;28;20555;-90
2023/05/22 12:29:35;;;;;;;24.35;22.75;;;27.60;44.70;;;;;;5114465;28;20227;-89